Time;durP1;ratioP1;P1;durP2;ratioP2;P2;SDS_P1;SDS_P2;PMS_P1;PMS_P2;Temp;Humidity;BMP_temperature;BMP_pressure;BME280_temperature;BME280_humidity;BME280_pressure;Samples;Min_cycle;Max_cycle;Signal;HPM_P1;HPM_P2
2022/06/09 00:00:41;;;;;;;14.90;8.55;;;;;;;16.91;73.04;100478.56;1838624;77;20802;-88
2022/06/09 00:03:18;;;;;;;14.53;9.08;;;;;;;16.87;73.23;100485.93;1838074;76;21158;-88
2022/06/09 00:05:45;;;;;;;10.80;8.30;;;;;;;16.83;73.43;100487.20;1838768;77;20919;-88
2022/06/09 00:08:12;;;;;;;12.47;8.60;;;;;;;16.81;73.51;100491.80;1837764;77;21429;-88
2022/06/09 00:10:43;;;;;;;13.08;8.53;;;;;;;16.77;73.68;100489.86;1836250;77;20863;-88
2022/06/09 00:13:11;;;;;;;16.65;10.35;;;;;;;16.77;73.57;100490.35;1836291;77;20874;-87
2022/06/09 00:15:38;;;;;;;14.80;9.35;;;;;;;16.73;73.27;100492.42;1836325;77;20887;-88
2022/06/09 00:18:06;;;;;;;15.90;9.95;;;;;;;16.66;73.04;100491.78;1836068;77;20883;-87
2022/06/09 00:20:34;;;;;;;13.18;10.10;;;;;;;16.61;73.08;100496.62;1835714;78;21246;-86
2022/06/09 00:23:01;;;;;;;16.48;10.25;;;;;;;16.54;73.29;100498.50;1835713;77;20852;-86
2022/06/09 00:25:29;;;;;;;16.62;10.38;;;;;;;16.47;73.47;100503.95;1835937;77;20910;-88
2022/06/09 00:27:56;;;;;;;16.85;10.18;;;;;;;16.42;73.47;100506.67;1839750;76;20978;-87
2022/06/09 00:30:23;;;;;;;16.12;10.30;;;;;;;16.36;73.53;100506.23;1860926;77;20899;-87
2022/06/09 00:32:51;;;;;;;14.63;9.93;;;;;;;16.32;73.60;100504.81;1860725;77;21191;-87
2022/06/09 00:35:18;;;;;;;13.48;10.65;;;;;;;16.29;73.65;100497.13;1860724;77;20915;-86
2022/06/09 00:37:45;;;;;;;20.55;11.80;;;;;;;16.26;73.67;100497.89;1860721;77;20903;-87
2022/06/09 00:40:12;;;;;;;20.43;11.55;;;;;;;16.22;73.57;100493.34;1860756;77;20852;-87
2022/06/09 00:42:39;;;;;;;17.07;12.10;;;;;;;16.18;73.01;100498.53;1860714;77;21037;-87
2022/06/09 00:45:33;;;;;;;15.78;10.93;;;;;;;16.13;73.05;100493.63;1860601;77;21263;-87
2022/06/09 00:48:25;;;;;;;22.22;12.75;;;;;;;16.11;73.12;100492.09;1860594;76;20867;-88
2022/06/09 00:50:57;;;;;;;19.92;11.97;;;;;;;16.08;73.29;100493.69;1861007;76;20793;-87
2022/06/09 00:53:29;;;;;;;22.80;12.93;;;;;;;16.07;73.08;100492.83;1829972;77;20966;-88
2022/06/09 00:55:56;;;;;;;18.05;12.05;;;;;;;16.07;73.01;100495.47;1860939;77;21479;-87
2022/06/09 00:58:23;;;;;;;21.25;11.90;;;;;;;16.05;72.83;100496.12;1860865;77;21069;-86
2022/06/09 01:00:57;;;;;;;18.35;12.63;;;;;;;16.03;72.98;100500.70;1860517;77;20902;-86
2022/06/09 01:03:28;;;;;;;23.83;13.43;;;;;;;16.00;73.18;100505.40;1860493;77;20974;-86
2022/06/09 01:06:08;;;;;;;21.02;12.70;;;;;;;15.99;73.07;100503.25;1860488;77;20950;-86
2022/06/09 01:08:35;;;;;;;13.98;11.35;;;;;;;15.99;72.96;100501.09;1859436;77;20868;-86
2022/06/09 01:11:04;;;;;;;18.37;12.30;;;;;;;15.95;72.94;100500.50;1830403;77;21879;-89
2022/06/09 01:13:31;;;;;;;17.57;11.93;;;;;;;15.95;72.94;100500.50;1861823;77;21344;-87
2022/06/09 01:16:10;;;;;;;19.42;13.00;;;;;;;15.90;73.08;100498.73;1861025;76;20989;-87
2022/06/09 01:18:48;;;;;;;16.97;12.75;;;;;;;15.86;73.25;100497.31;1858758;77;20942;-88
2022/06/09 01:21:48;;;;;;;18.32;11.93;;;;;;;15.81;73.62;100502.13;1860930;77;20922;-88
2022/06/09 01:25:07;;;;;;;17.20;11.10;;;;;;;15.76;73.92;100502.52;1851822;77;21013;-88
2022/06/09 01:27:59;;;;;;;18.40;12.15;;;;;;;15.70;74.27;100501.20;1860734;77;21365;-88
2022/06/09 01:30:56;;;;;;;19.92;11.95;;;;;;;15.66;74.57;100497.63;1824713;77;20860;-88
2022/06/09 01:33:37;;;;;;;19.60;12.45;;;;;;;15.60;74.80;100488.88;1860836;77;21010;-88
2022/06/09 01:36:18;;;;;;;20.62;14.03;;;;;;;15.54;75.11;100491.56;1861114;76;20942;-87
2022/06/09 01:38:52;;;;;;;23.10;14.63;;;;;;;15.50;75.33;100492.30;1860739;76;21065;-87
2022/06/09 01:41:19;;;;;;;;;;;;;;;15.45;75.21;100490.52;1863423;77;21372;-87
2022/06/09 01:43:46;;;;;;;24.05;15.38;;;;;;;15.42;74.52;100489.92;1861032;77;20103;-88
2022/06/09 01:46:25;;;;;;;26.10;16.40;;;;;;;15.39;74.59;100472.52;1830058;77;20884;-88
2022/06/09 01:48:53;;;;;;;23.83;14.25;;;;;;;15.43;74.39;100481.02;1859482;77;20859;-87
2022/06/09 01:51:21;;;;;;;22.98;15.45;;;;;;;15.43;74.39;100481.02;1861026;77;21389;-87
2022/06/09 01:53:55;;;;;;;23.62;14.95;;;;;;;15.44;74.65;100475.61;1860806;77;21309;-88
2022/06/09 01:56:34;;;;;;;;;;;;;;;15.48;74.53;100473.57;1863553;77;20872;-88
2022/06/09 01:59:12;;;;;;;25.45;14.95;;;;;;;15.51;74.54;100475.94;1860617;76;20087;-88
2022/06/09 02:01:46;;;;;;;20.77;13.28;;;;;;;15.54;74.69;100481.00;1838609;76;20879;-87
2022/06/09 02:04:30;;;;;;;20.75;13.20;;;;;;;15.59;75.03;100478.80;1861001;77;21262;-87
2022/06/09 02:06:56;;;;;;;25.27;15.08;;;;;;;15.65;74.96;100480.94;1861005;77;20888;-85
2022/06/09 02:09:26;;;;;;;25.25;15.60;;;;;;;15.71;74.47;100484.40;1862733;77;21100;-84
2022/06/09 02:11:56;;;;;;;19.75;13.48;;;;;;;15.73;73.95;100486.43;1861492;77;20973;-87
2022/06/09 02:14:26;;;;;;;24.72;15.90;;;;;;;15.73;73.74;100490.89;1861050;76;20954;-87
2022/06/09 02:16:55;;;;;;;23.52;14.13;;;;;;;15.71;73.60;100492.33;1861016;77;21266;-87
2022/06/09 02:19:23;;;;;;;22.62;14.63;;;;;;;15.66;73.62;100493.17;1860983;77;21006;-87
2022/06/09 02:21:50;;;;;;;24.70;15.18;;;;;;;15.61;73.83;100494.05;1860568;77;20895;-85
2022/06/09 02:24:16;;;;;;;23.12;15.23;;;;;;;15.57;74.17;100493.11;1860829;77;20876;-87
2022/06/09 02:26:44;;;;;;;25.00;16.55;;;;;;;15.51;74.43;100493.12;1861205;77;20958;-87
2022/06/09 02:29:14;;;;;;;25.65;16.65;;;;;;;15.48;74.53;100498.19;1856126;77;20838;-87
2022/06/09 02:31:41;;;;;;;24.98;17.15;;;;;;;15.46;74.35;100498.79;1850374;77;20855;-87
2022/06/09 02:34:09;;;;;;;24.00;16.23;;;;;;;15.43;74.13;100497.73;1850120;77;20890;-86
2022/06/09 02:36:36;;;;;;;28.50;17.37;;;;;;;15.42;73.90;100498.69;1850233;77;20885;-87
2022/06/09 02:39:03;;;;;;;26.45;16.35;;;;;;;15.42;73.91;100501.33;1850095;77;20920;-87
2022/06/09 02:41:29;;;;;;;24.92;16.67;;;;;;;15.44;73.62;100498.56;1849988;77;21222;-87
2022/06/09 02:43:56;;;;;;;22.85;16.05;;;;;;;15.46;73.54;100506.72;1849925;77;21280;-86
2022/06/09 02:46:22;;;;;;;27.62;16.87;;;;;;;15.48;73.46;100505.28;1850031;77;21327;-89
2022/06/09 02:48:49;;;;;;;24.23;15.93;;;;;;;15.51;73.53;100505.02;1822711;77;20924;-85
2022/06/09 02:51:34;;;;;;;24.12;16.52;;;;;;;15.53;73.46;100507.05;1850434;77;20916;-87
2022/06/09 02:54:04;;;;;;;;;;;;;;;15.54;73.57;100506.94;1853315;77;21315;-88
2022/06/09 02:56:30;;;;;;;24.20;16.65;;;;;;;15.59;73.65;100516.30;1850361;77;20085;-87
2022/06/09 02:58:57;;;;;;;26.05;16.40;;;;;;;15.62;73.78;100502.81;1850382;77;20929;-86
2022/06/09 03:01:24;;;;;;;28.52;16.85;;;;;;;15.67;73.87;100504.58;1850279;77;20984;-87
2022/06/09 03:03:51;;;;;;;22.32;16.23;;;;;;;15.71;73.99;100504.72;1850213;77;21359;-87
2022/06/09 03:06:18;;;;;;;22.90;16.27;;;;;;;15.77;73.99;100505.53;1850413;77;21843;-88
2022/06/09 03:08:45;;;;;;;23.05;15.63;;;;;;;15.86;74.06;100511.86;1850249;77;20956;-89
2022/06/09 03:11:12;;;;;;;22.67;16.12;;;;;;;15.96;74.35;100515.39;1850216;77;20877;-87
2022/06/09 03:13:40;;;;;;;25.08;16.07;;;;;;;16.07;74.03;100514.48;1850243;77;20925;-88
2022/06/09 03:16:07;;;;;;;24.87;16.02;;;;;;;16.19;73.85;100516.10;1850289;77;21398;-88
2022/06/09 03:18:33;;;;;;;22.45;17.15;;;;;;;16.30;73.86;100518.66;1850443;77;21180;-88
2022/06/09 03:21:00;;;;;;;28.00;16.23;;;;;;;16.41;73.63;100509.80;1850376;77;20834;-87
2022/06/09 03:23:27;;;;;;;25.70;16.50;;;;;;;16.55;73.90;100508.60;1850460;77;20881;-88
2022/06/09 03:25:53;;;;;;;24.75;16.77;;;;;;;16.68;73.69;100505.23;1850363;77;20995;-88
2022/06/09 03:28:19;;;;;;;22.55;16.17;;;;;;;16.83;73.38;100508.39;1850359;77;20913;-86
2022/06/09 03:30:46;;;;;;;24.02;16.00;;;;;;;16.97;72.74;100507.16;1860400;77;21277;-87
2022/06/09 03:33:12;;;;;;;23.42;17.17;;;;;;;17.11;72.34;100513.38;1860924;77;20911;-87
2022/06/09 03:35:39;;;;;;;26.48;15.83;;;;;;;17.25;72.19;100506.83;1861076;77;20836;-87
2022/06/09 03:38:06;;;;;;;27.87;17.02;;;;;;;17.40;72.14;100505.45;1861340;77;21412;-87
2022/06/09 03:40:33;;;;;;;21.60;16.95;;;;;;;17.57;72.20;100496.47;1860916;77;20834;-88
2022/06/09 03:43:03;;;;;;;25.62;16.95;;;;;;;17.72;72.20;100499.05;1860993;77;21781;-87
2022/06/09 03:45:31;;;;;;;24.18;15.83;;;;;;;17.87;72.07;100490.17;1860633;76;20872;-88
2022/06/09 03:47:58;;;;;;;23.80;17.00;;;;;;;18.02;72.12;100502.50;1860667;77;20816;-86
2022/06/09 03:50:27;;;;;;;26.12;16.40;;;;;;;18.16;72.27;100502.06;1860741;77;20959;-87
2022/06/09 03:52:54;;;;;;;21.77;15.83;;;;;;;18.31;72.40;100500.26;1860913;76;21052;-87
2022/06/09 03:55:20;;;;;;;22.25;16.57;;;;;;;18.46;72.36;100501.46;1860906;77;21133;-86
2022/06/09 03:57:47;;;;;;;25.27;14.90;;;;;;;18.61;72.26;100498.67;1860720;77;20958;-87
2022/06/09 04:00:19;;;;;;;28.35;15.83;;;;;;;18.77;72.08;100493.21;1861041;76;21404;-89
2022/06/09 04:02:47;;;;;;;32.53;18.77;;;;;;;18.93;71.84;100499.23;1860714;76;20947;-88
2022/06/09 04:05:13;;;;;;;24.75;15.32;;;;;;;19.08;71.54;100494.25;1861143;77;21052;-88
2022/06/09 04:07:41;;;;;;;22.58;14.55;;;;;;;19.21;71.34;100490.23;1861071;77;21209;-87
2022/06/09 04:10:15;;;;;;;23.30;15.15;;;;;;;19.33;71.02;100489.50;1860784;77;20875;-88
2022/06/09 04:12:43;;;;;;;20.08;13.48;;;;;;;19.47;70.54;100493.44;1860837;77;21301;-88
2022/06/09 04:15:10;;;;;;;24.50;14.50;;;;;;;19.63;70.57;100496.25;1860835;76;20872;-88
2022/06/09 04:17:37;;;;;;;21.65;12.55;;;;;;;19.83;70.50;100496.94;1860785;76;20931;-88
2022/06/09 04:20:05;;;;;;;18.65;9.80;;;;;;;20.01;70.24;100499.55;1860831;77;21105;-86
2022/06/09 04:22:33;;;;;;;20.70;10.95;;;;;;;20.22;69.20;100495.67;1860557;77;20903;-88
2022/06/09 04:25:00;;;;;;;14.30;10.48;;;;;;;20.54;68.28;100488.84;1860653;77;20954;-88
2022/06/09 04:27:27;;;;;;;22.58;11.83;;;;;;;20.86;66.93;100496.16;1860670;77;20867;-86
2022/06/09 04:29:57;;;;;;;22.75;12.30;;;;;;;21.31;64.94;100489.58;1855318;77;21390;-87
2022/06/09 04:32:27;;;;;;;22.85;10.85;;;;;;;21.80;63.31;100489.61;1850012;77;20925;-87
2022/06/09 04:34:54;;;;;;;17.55;10.50;;;;;;;22.37;61.38;100497.19;1849914;76;20904;-88
2022/06/09 04:37:20;;;;;;;17.80;12.05;;;;;;;22.93;59.62;100496.11;1850032;77;20834;-87
2022/06/09 04:39:48;;;;;;;19.67;11.68;;;;;;;23.37;57.60;100493.36;1851873;77;20949;-88
2022/06/09 04:42:15;;;;;;;20.00;10.32;;;;;;;23.65;56.25;100488.78;1850391;77;20965;-86
2022/06/09 04:44:41;;;;;;;19.80;10.40;;;;;;;23.67;55.05;100488.09;1850234;76;21082;-89
2022/06/09 04:47:07;;;;;;;14.13;9.45;;;;;;;23.63;55.17;100492.14;1849902;77;21422;-87
2022/06/09 04:49:34;;;;;;;15.60;9.18;;;;;;;23.70;54.77;100491.73;1850060;77;21473;-88
2022/06/09 04:52:01;;;;;;;14.28;10.00;;;;;;;23.88;54.88;100499.47;1849984;76;20877;-88
2022/06/09 04:54:28;;;;;;;12.37;9.15;;;;;;;24.25;54.13;100499.10;1850099;77;20889;-89
2022/06/09 04:56:54;;;;;;;17.75;9.63;;;;;;;24.76;53.10;100496.50;1850315;77;21128;-89
2022/06/09 04:59:21;;;;;;;17.02;9.98;;;;;;;25.18;52.32;100492.22;1849919;76;20822;-89
2022/06/09 05:01:48;;;;;;;14.55;10.63;;;;;;;25.59;51.20;100490.24;1849918;76;20885;-89
2022/06/09 05:04:15;;;;;;;13.95;8.93;;;;;;;25.97;49.76;100494.83;1849792;77;20944;-89
2022/06/09 05:06:43;;;;;;;14.33;9.90;;;;;;;26.29;49.01;100491.19;1850042;76;20988;-86
2022/06/09 05:09:10;;;;;;;14.55;10.23;;;;;;;26.57;48.51;100493.86;1849939;77;21238;-91
2022/06/09 05:11:36;;;;;;;23.25;13.85;;;;;;;26.94;47.46;100493.03;1850167;77;20917;-89
2022/06/09 05:14:04;;;;;;;24.00;12.85;;;;;;;27.37;46.17;100504.87;1850547;77;21766;-90
2022/06/09 05:16:31;;;;;;;18.90;13.25;;;;;;;27.78;45.21;100494.94;1850211;77;20912;-90
2022/06/09 05:18:58;;;;;;;21.75;14.07;;;;;;;28.18;43.82;100496.26;1851290;77;20987;-86
2022/06/09 05:21:24;;;;;;;24.55;14.07;;;;;;;28.53;42.81;100502.20;1852557;76;21219;-87
2022/06/09 05:23:51;;;;;;;21.65;13.08;;;;;;;28.80;42.57;100506.14;1851715;77;20881;-88
2022/06/09 05:26:18;;;;;;;19.23;13.70;;;;;;;29.02;42.15;100504.77;1850435;77;20882;-88
2022/06/09 05:28:44;;;;;;;19.05;12.10;;;;;;;29.28;42.00;100511.07;1850319;77;20889;-88
2022/06/09 05:31:11;;;;;;;21.05;12.70;;;;;;;29.52;41.59;100503.52;1837202;75;20828;-88
2022/06/09 05:33:37;;;;;;;21.50;13.15;;;;;;;29.77;40.75;100505.95;1835515;77;20899;-86
2022/06/09 05:36:06;;;;;;;20.27;12.68;;;;;;;30.01;40.10;100498.33;1835922;77;21350;-89
2022/06/09 05:46:47;;;;;;;22.27;12.88;;;;;;;30.90;37.00;100496.09;1835651;77;21107;-91
2022/06/09 05:49:16;;;;;;;24.45;13.83;;;;;;;31.01;37.06;100500.44;1835532;78;20931;-90
2022/06/09 05:51:44;;;;;;;20.32;13.08;;;;;;;31.17;36.65;100497.06;1836759;77;20930;-89
2022/06/09 05:54:11;;;;;;;27.30;13.75;;;;;;;31.39;36.49;100500.91;1837071;76;20899;-89
2022/06/09 05:56:39;;;;;;;21.73;12.85;;;;;;;31.59;35.59;100503.84;1835996;77;20867;-88
2022/06/09 05:59:05;;;;;;;19.60;13.75;;;;;;;31.63;35.07;100506.92;1836030;77;21133;-89
2022/06/09 06:01:32;;;;;;;24.57;14.33;;;;;;;31.65;35.07;100508.33;1835901;77;20914;-90
2022/06/09 06:03:59;;;;;;;20.32;15.70;;;;;;;31.74;35.20;100509.62;1835871;76;21325;-90
2022/06/09 06:06:34;;;;;;;27.48;16.42;;;;;;;31.85;34.46;100503.10;1836047;76;21432;-90
2022/06/09 06:09:05;;;;;;;24.52;16.57;;;;;;;31.92;33.98;100501.91;1835658;77;20915;-91
2022/06/09 06:11:34;;;;;;;25.77;14.28;;;;;;;32.02;34.46;100497.30;1835669;77;21103;-92
2022/06/09 06:14:00;;;;;;;25.50;13.98;;;;;;;32.26;33.70;100499.45;1836029;77;20870;-90
2022/06/09 06:16:27;;;;;;;29.75;14.80;;;;;;;32.59;33.32;100504.75;1835911;77;20915;-90
2022/06/09 06:18:55;;;;;;;28.32;15.70;;;;;;;32.96;32.30;100505.20;1836214;77;20942;-89
2022/06/09 06:21:22;;;;;;;24.63;15.05;;;;;;;33.30;31.71;100503.11;1836288;77;20800;-91
2022/06/09 06:23:49;;;;;;;24.82;14.50;;;;;;;33.34;31.79;100494.75;1836116;76;21244;-90
2022/06/09 06:26:17;;;;;;;27.22;14.58;;;;;;;33.32;31.63;100494.17;1836219;76;21305;-90
2022/06/09 06:28:44;;;;;;;26.70;17.15;;;;;;;33.35;31.69;100493.16;1836520;77;21392;-89
2022/06/09 06:31:11;;;;;;;29.05;16.17;;;;;;;33.37;31.02;100493.73;1856187;77;20840;-88
2022/06/09 06:33:38;;;;;;;27.42;16.85;;;;;;;33.34;31.23;100492.86;1863358;77;20974;-87
2022/06/09 06:36:05;;;;;;;33.92;19.67;;;;;;;33.35;31.30;100490.95;1862936;77;21677;-89
2022/06/09 06:38:32;;;;;;;32.93;19.67;;;;;;;33.37;31.49;100490.17;1862439;76;20914;-90
2022/06/09 06:41:05;;;;;;;29.92;17.82;;;;;;;33.34;31.37;100493.39;1861875;77;20895;-90
2022/06/09 06:45:11;;;;;;;27.13;18.62;;;;;;;33.71;31.35;100494.30;1885121;75;22444;-89
2022/06/09 06:47:41;;;;;;;37.05;19.35;;;;;;;33.90;31.37;100498.92;1861667;76;20875;-90
2022/06/09 06:50:14;;;;;;;25.57;18.57;;;;;;;34.21;30.23;100496.11;1862506;77;21267;-90
2022/06/09 06:52:41;;;;;;;25.62;19.37;;;;;;;34.53;29.81;100498.98;1861900;77;20931;-91
2022/06/09 06:55:11;;;;;;;29.02;18.75;;;;;;;34.80;29.09;100496.31;1862162;77;20887;-92
2022/06/09 06:57:38;;;;;;;25.90;17.25;;;;;;;35.02;28.70;100488.63;1831466;77;20887;-89
2022/06/09 07:00:07;;;;;;;26.70;17.05;;;;;;;35.28;28.59;100489.18;1862059;76;20969;-91
2022/06/09 07:02:34;;;;;;;33.00;17.75;;;;;;;35.54;28.04;100488.55;1861965;77;21579;-90
2022/06/09 07:05:00;;;;;;;28.70;24.82;;;;;;;35.74;27.43;100490.08;1861778;77;20892;-89
2022/06/09 07:07:27;;;;;;;24.45;15.85;;;;;;;35.91;27.12;100487.20;1862382;77;21621;-91
2022/06/09 07:09:55;;;;;;;22.60;16.32;;;;;;;36.10;27.09;100481.54;1862638;76;20955;-92
2022/06/09 07:12:22;;;;;;;18.48;14.23;;;;;;;36.36;26.71;100482.25;1862144;77;20942;-93
2022/06/09 07:14:48;;;;;;;77.42;70.00;;;;;;;36.56;26.46;100490.51;1862138;77;21261;-92
2022/06/09 07:17:17;;;;;;;18.98;15.75;;;;;;;36.56;26.02;100493.24;1862086;77;20887;-90
2022/06/09 07:19:45;;;;;;;18.40;14.90;;;;;;;36.40;26.49;100491.00;1861987;77;20892;-92
2022/06/09 07:22:12;;;;;;;20.62;14.93;;;;;;;36.50;25.86;100495.13;1863508;77;20903;-92
2022/06/09 07:24:41;;;;;;;17.73;12.88;;;;;;;36.49;25.56;100470.27;1862528;77;20863;-92
2022/06/09 07:27:09;;;;;;;13.25;11.85;;;;;;;36.56;25.44;100487.78;1862394;77;21249;-90
2022/06/09 07:29:35;;;;;;;17.37;13.13;;;;;;;36.61;25.69;100487.81;1862706;77;20946;-90
2022/06/09 07:32:03;;;;;;;21.17;14.87;;;;;;;36.70;25.50;100489.48;1862536;77;20986;-89
2022/06/09 07:34:30;;;;;;;20.65;12.03;;;;;;;36.73;25.58;100490.33;1862414;76;21475;-91
2022/06/09 07:36:57;;;;;;;18.45;12.23;;;;;;;36.73;25.40;100493.06;1863374;77;21368;-92
2022/06/09 07:39:24;;;;;;;21.52;12.40;;;;;;;36.84;25.23;100495.24;1862440;76;21339;-92
2022/06/09 07:41:52;;;;;;;21.17;13.90;;;;;;;37.02;24.79;100495.27;1862809;77;20875;-90
2022/06/09 07:44:19;;;;;;;22.40;13.28;;;;;;;37.16;25.08;100496.42;1856618;77;20908;-92
2022/06/09 07:46:46;;;;;;;20.15;12.30;;;;;;;37.29;24.87;100493.70;1847402;77;20952;-89
2022/06/09 07:49:12;;;;;;;19.85;12.90;;;;;;;37.40;25.15;100489.86;1851706;77;20830;-92
2022/06/09 07:51:39;;;;;;;142.05;128.23;;;;;;;37.49;24.60;100486.03;1851243;76;21268;-91
2022/06/09 07:54:08;;;;;;;21.05;15.68;;;;;;;37.50;24.81;100487.66;1851252;77;20868;-93
2022/06/09 07:56:36;;;;;;;19.62;13.62;;;;;;;37.49;24.18;100486.03;1850785;77;20901;-91
2022/06/09 07:59:08;;;;;;;20.35;13.80;;;;;;;37.52;24.37;100493.12;1850519;77;20917;-89
2022/06/09 08:01:38;;;;;;;20.82;13.38;;;;;;;37.47;24.60;100494.50;1850971;77;20968;-91
2022/06/09 08:04:05;;;;;;;25.48;13.95;;;;;;;37.30;24.51;100495.33;1850984;77;21196;-94
2022/06/09 08:06:31;;;;;;;15.60;12.13;;;;;;;37.12;24.66;100492.03;1851101;76;21040;-91
2022/06/09 08:08:59;;;;;;;16.77;11.15;;;;;;;37.05;24.53;100492.01;1851135;77;20889;-89
2022/06/09 08:11:32;;;;;;;14.13;10.45;;;;;;;37.08;24.58;100492.85;1850893;77;20834;-92
2022/06/09 08:14:00;;;;;;;14.47;11.90;;;;;;;37.26;24.68;100493.67;1851074;76;20834;-93
2022/06/09 08:16:28;;;;;;;13.15;10.18;;;;;;;37.31;24.37;100491.52;1851375;77;21074;-93
2022/06/09 08:18:54;;;;;;;16.60;10.38;;;;;;;37.30;23.94;100494.77;1850915;77;20963;-92
2022/06/09 08:21:21;;;;;;;17.60;11.20;;;;;;;37.39;23.88;100496.41;1851220;77;20912;-91
2022/06/09 08:23:52;;;;;;;19.17;11.33;;;;;;;37.52;23.88;100493.68;1848138;77;20886;-92
2022/06/09 08:26:21;;;;;;;17.82;12.15;;;;;;;37.52;23.90;100491.75;1851859;77;20928;-91
2022/06/09 08:28:49;;;;;;;11.70;10.35;;;;;;;37.61;24.39;100488.50;1852243;77;21035;-93
2022/06/09 08:31:17;;;;;;;16.50;10.43;;;;;;;37.69;23.18;100485.22;1852326;76;20905;-91
2022/06/09 08:33:44;;;;;;;15.25;10.85;;;;;;;37.76;23.21;100485.73;1852722;76;20988;-91
2022/06/09 08:36:14;;;;;;;14.75;11.48;;;;;;;37.88;22.97;100480.77;1852404;77;20945;-92
2022/06/09 08:38:42;;;;;;;14.55;10.05;;;;;;;38.02;23.31;100470.63;1851361;76;20866;-92
2022/06/09 08:41:52;;;;;;;17.62;11.90;;;;;;;38.17;23.22;100469.20;1851229;77;21062;-91
2022/06/09 08:44:51;;;;;;;18.35;11.28;;;;;;;38.24;22.80;100471.08;1854690;75;20867;-90
2022/06/09 08:47:28;;;;;;;111.85;101.72;;;;;;;38.15;23.08;100467.30;1861854;76;20868;-91
2022/06/09 08:50:23;;;;;;;18.42;12.55;;;;;;;38.09;22.71;100473.36;1862110;77;20915;-90
2022/06/09 08:53:05;;;;;;;16.35;13.68;;;;;;;38.17;22.61;100471.94;1862360;76;21017;-92
2022/06/09 08:55:54;;;;;;;26.93;15.15;;;;;;;38.24;22.78;100472.45;1861928;77;21137;-90
2022/06/09 08:58:38;;;;;;;18.25;15.28;;;;;;;38.26;22.43;100466.70;1861600;77;20898;-93
2022/06/09 09:01:31;;;;;;;19.17;11.40;;;;;;;38.04;22.30;100469.27;1861967;76;21009;-92
2022/06/09 09:04:26;;;;;;;20.55;12.78;;;;;;;37.86;22.50;100461.06;1861496;77;20946;-91
2022/06/09 09:07:01;;;;;;;18.12;11.93;;;;;;;37.88;22.69;100462.16;1858776;76;20907;-90
2022/06/09 09:09:30;;;;;;;16.45;12.20;;;;;;;37.64;22.86;100460.05;1861714;77;21145;-89
2022/06/09 09:12:14;;;;;;;15.25;10.58;;;;;;;37.11;23.15;100462.25;1861134;76;20866;-91
2022/06/09 09:15:04;;;;;;;29.37;26.23;;;;;;;36.67;23.32;100462.15;1861559;77;20982;-92
2022/06/09 09:18:01;;;;;;;31.93;18.42;;;;;;;36.51;24.40;100457.72;1862065;77;20892;-90
2022/06/09 09:20:34;;;;;;;16.50;12.28;;;;;;;36.41;24.65;100450.84;1837723;77;20864;-92
2022/06/09 09:23:21;;;;;;;13.88;9.43;;;;;;;36.25;24.41;100452.16;1863390;77;21075;-91
2022/06/09 09:26:09;;;;;;;21.10;10.48;;;;;;;35.87;24.47;100439.67;1863857;77;20927;-89
2022/06/09 09:28:54;;;;;;;14.93;8.50;;;;;;;35.63;24.63;100446.89;1796948;78;20924;-94
2022/06/09 09:31:59;;;;;;;17.20;8.90;;;;;;;35.26;24.47;100446.86;1798606;79;20907;-90
2022/06/09 09:34:27;;;;;;;11.30;7.80;;;;;;;35.03;24.88;100447.47;1797663;78;20880;-94
2022/06/09 09:36:58;;;;;;;11.48;7.65;;;;;;;35.09;23.17;100445.62;1797658;78;21127;-92
2022/06/09 09:39:42;;;;;;;13.22;9.20;;;;;;;35.25;24.42;100441.14;1797911;79;20946;-91
2022/06/09 09:42:19;;;;;;;11.18;7.90;;;;;;;35.55;24.87;100443.25;1798005;78;20887;-91
2022/06/09 09:45:20;;;;;;;10.53;7.20;;;;;;;35.93;23.58;100433.68;1805967;77;20904;-91
2022/06/09 09:48:05;;;;;;;9.93;6.90;;;;;;;36.21;23.02;100437.39;1812142;77;20931;-92
2022/06/09 09:51:11;;;;;;;7.97;5.50;;;;;;;36.47;22.12;100433.39;1812747;77;21094;-91
2022/06/09 09:53:50;;;;;;;9.98;5.87;;;;;;;36.72;20.82;100439.47;1812697;77;20797;-92
2022/06/09 09:56:23;;;;;;;10.35;6.00;;;;;;;36.93;21.17;100441.67;1791431;80;20873;-90
2022/06/09 09:58:57;;;;;;;8.83;6.90;;;;;;;36.93;21.26;100432.95;1757871;80;20916;-90
2022/06/09 10:08:35;;;;;;;10.20;5.95;;;;;;;36.73;21.52;100441.13;1791862;80;20979;-91
2022/06/09 10:10:19;;;;;;;18.77;7.37;;;;;;;35.11;23.08;100434.44;1801681;79;20918;-89
2022/06/09 10:12:45;;;;;;;8.70;6.15;;;;;;;34.55;23.96;100436.05;1801034;79;21019;-90
2022/06/09 10:15:21;;;;;;;15.00;10.85;;;;;;;34.46;24.33;100425.64;1801507;79;21436;-91
2022/06/09 10:18:10;;;;;;;11.65;5.78;;;;;;;34.57;24.99;100431.99;1797463;79;21270;-94
2022/06/09 10:21:06;;;;;;;16.02;6.60;;;;;;;34.63;24.46;100431.55;1800629;79;20887;-92
2022/06/09 10:23:54;;;;;;;10.20;4.75;;;;;;;34.86;23.59;100432.61;1800848;79;20875;-89
2022/06/09 10:26:31;;;;;;;8.45;4.78;;;;;;;35.02;23.71;100430.03;1801126;79;20887;-91
2022/06/09 10:29:21;;;;;;;8.48;5.67;;;;;;;35.11;23.43;100422.17;1797728;79;20855;-91
2022/06/09 10:32:19;;;;;;;12.63;9.08;;;;;;;35.19;24.64;100419.00;1797306;79;21266;-91
2022/06/09 10:35:06;;;;;;;6.85;5.05;;;;;;;35.40;24.55;100412.63;1796841;79;20969;-93
2022/06/09 10:38:01;;;;;;;8.00;4.28;;;;;;;35.27;24.29;100419.34;1801229;79;21036;-92
2022/06/09 10:40:40;;;;;;;8.03;4.15;;;;;;;34.96;24.54;100411.44;1800822;79;20915;-92
2022/06/09 10:43:24;;;;;;;5.78;4.47;;;;;;;34.65;23.38;100407.61;1800792;79;20918;-92
2022/06/09 10:46:05;;;;;;;11.57;4.22;;;;;;;34.44;23.95;100407.88;1797488;79;21761;-92
2022/06/09 10:57:35;;;;;;;5.50;4.05;;;;;;;34.72;24.09;100399.22;1862584;77;20871;-90
2022/06/09 11:00:19;;;;;;;11.88;4.05;;;;;;;34.67;23.43;100400.81;1854535;77;21569;-90
2022/06/09 11:02:58;;;;;;;4.92;3.30;;;;;;;34.47;23.98;100395.14;1862325;77;20888;-90
2022/06/09 11:05:28;;;;;;;7.70;4.53;;;;;;;34.50;24.16;100395.97;1860803;77;20914;-90
2022/06/09 11:08:26;;;;;;;8.90;3.22;;;;;;;34.53;23.60;100392.76;1861362;77;20919;-89
2022/06/09 11:11:07;;;;;;;6.50;3.15;;;;;;;34.65;23.90;100401.61;1682077;84;21031;-90
2022/06/09 11:14:02;;;;;;;3.77;2.10;;;;;;;34.73;22.54;100400.85;1694542;84;21675;-90
2022/06/09 11:16:46;;;;;;;6.78;2.17;;;;;;;34.73;22.46;100392.68;1694236;84;20887;-87
2022/06/09 11:19:49;;;;;;;7.30;2.52;;;;;;;34.78;23.47;100387.30;1693927;83;20939;-88
2022/06/09 11:22:40;;;;;;;6.92;2.98;;;;;;;34.88;23.79;100393.67;1693939;84;20983;-91
2022/06/09 11:25:51;;;;;;;9.45;2.50;;;;;;;34.92;23.98;100390.41;1693754;84;20947;-88
2022/06/09 11:28:55;;;;;;;4.00;1.87;;;;;;;34.92;23.50;100393.14;1693828;84;21791;-89
2022/06/09 11:31:40;;;;;;;5.67;2.65;;;;;;;34.92;24.23;100390.41;1684796;84;21106;-90
2022/06/09 11:34:36;;;;;;;7.35;2.98;;;;;;;34.90;23.82;100391.20;1693847;84;21396;-87
2022/06/09 11:37:36;;;;;;;61.25;55.90;;;;;;;34.85;23.15;100391.98;1694389;84;20927;-87
2022/06/09 11:40:26;;;;;;;5.78;3.92;;;;;;;34.59;23.71;100385.44;1695159;83;20876;-87
2022/06/09 11:43:24;;;;;;;344.93;310.43;;;;;;;34.21;23.46;100392.13;1695521;83;21119;-85
2022/06/09 11:46:01;;;;;;;13.55;6.87;;;;;;;33.97;24.53;100382.03;1680964;84;21442;-86
2022/06/09 11:48:37;;;;;;;5.92;3.92;;;;;;;33.78;23.94;100382.86;1675361;84;20903;-89
2022/06/09 11:51:04;;;;;;;4.78;2.70;;;;;;;33.62;24.64;100385.10;1674919;84;20963;-91
2022/06/09 11:53:38;;;;;;;4.45;2.62;;;;;;;33.42;23.67;100382.88;1675000;84;20879;-90
2022/06/09 11:56:33;;;;;;;9.00;2.80;;;;;;;33.24;24.57;100390.77;1675340;84;21159;-89
2022/06/09 11:59:20;;;;;;;6.70;2.33;;;;;;;33.02;24.00;100386.58;1672409;84;20943;-89
2022/06/09 12:02:02;;;;;;;4.72;2.30;;;;;;;32.84;25.59;100383.56;1783244;77;21013;-87
2022/06/09 12:05:15;;;;;;;5.65;2.05;;;;;;;32.69;25.76;100378.69;1808544;78;20883;-89